EGMD Airport Information

Runway Information
Runway 03 Length 4938 ft width 121 ft Elevation 10 ft Threshold N/A Heading 33
Runway 21 Length 4938 ft Width 121 ft Elevation 12 ft Threshold 115 ft Heading 213
Runway 14 Length 2264 ft width 115 ft Elevation 10 ft Threshold N/A Heading 138
Runway 32 Length 2264 ft Width 115 ft Elevation 10 ft Threshold N/A Heading 318
Airport Frequencies
Type Lydd APP Name Lydd Appro Frequency 120.7 MHZ
Type TWR Name TWR Frequency 128.525 MHZ
Type atis Name Frequency 129.225 MHZ
Airport Navaids
Type VOR-DME Name Lydd Frequency 114050 KHZ
Type NDB Name Lydd Frequency 397 KHZ
Airport Weather Information & NOTAM
ADDS - METARS form results

(1726 UTC 05 February 2023)
Data provider http://aviationweather.gov/metar/data/
 
METAR text: EGMD 051720Z 03006KT 9999 FEW030 05/02 Q1045
Conditions at: EGMD (LYDD AIRPORT , GB) observed 1720 UTC 05 February 2023
Temperature: 5.0°C (41°F)
Dewpoint: 2.0°C (36°F) [RH = 81%]
Pressure (altimeter): 30.86 inches Hg (1045.0 mb)
Winds: from the NNE (30 degrees) at 7 MPH (6 knots; 3.1 m/s)
Visibility: 6 or more miles (10+ km)
Ceiling: at least 12,000 feet AGL
Clouds: few clouds at 3000 feet AGL
Weather: no significant weather observed at this time

METAR text: EGMD 051650Z 03008KT 9999 FEW027 07/02 Q1045
Conditions at: EGMD (LYDD AIRPORT , GB) observed 1650 UTC 05 February 2023
Temperature: 7.0°C (45°F)
Dewpoint: 2.0°C (36°F) [RH = 70%]
Pressure (altimeter): 30.86 inches Hg (1045.0 mb)
Winds: from the NNE (30 degrees) at 9 MPH (8 knots; 4.1 m/s)
Visibility: 6 or more miles (10+ km)
Ceiling: at least 12,000 feet AGL
Clouds: few clouds at 2700 feet AGL
Weather: no significant weather observed at this time

Forecast for: EGMD (LYDD AIRPORT , GB)
Text: TAF EGMD 051705Z 0518/0603 36006KT CAVOK
Forecast period: 1800 UTC 05 February 2023 to 0300 UTC 06 February 2023
Forecast type: FROM: standard forecast or significant change
Winds: from the N (360 degrees) at 7 MPH (6 knots; 3.1 m/s)
Visibility: 6 or more miles (10+ km)
Ceiling: unknown
Clouds: missing
Weather: NSW  (no significant weather)
Text: PROB30
Forecast period: 2300 UTC 05 February 2023 to 0200 UTC 06 February 2023
Forecast type: TEMPORARY: The following changes expected for less than half the time period
Visibility: 4 miles (6 km)
Ceiling: unknown
Clouds: missing
Weather: no significant weather forecast for this period
Text: TEMPO 0523/0602 6000
Forecast period: 0200 to 0300 UTC 06 February 2023
Forecast type: TEMPORARY: The following changes expected for less than half the time period
Visibility: 1.86 miles (2.99 km)
Ceiling: unknown
Clouds: missing
Weather: BR MIFG  (mist, shallow fog)